Time;durP1;ratioP1;P1;durP2;ratioP2;P2;SDS_P1;SDS_P2;PMS_P1;PMS_P2;Temp;Humidity;BMP_temperature;BMP_pressure;BME280_temperature;BME280_humidity;BME280_pressure;Samples;Min_cycle;Max_cycle;Signal;HPM_P1;HPM_P2
2023/09/02 00:01:29;;;;;;;7.20;3.00;;;17.50;99.90;;;;;;4929125;29;20668;-75
2023/09/02 00:03:55;;;;;;;4.63;3.43;;;17.50;99.90;;;;;;4933286;29;20263;-74
2023/09/02 00:06:20;;;;;;;3.10;2.70;;;17.50;99.90;;;;;;4916212;29;20215;-74
2023/09/02 00:08:47;;;;;;;2.97;2.70;;;17.50;99.90;;;;;;4932270;29;20185;-74
2023/09/02 00:11:13;;;;;;;3.50;2.50;;;17.50;99.90;;;;;;4916435;29;20208;-74
2023/09/02 00:13:39;;;;;;;6.00;2.70;;;17.50;99.90;;;;;;4923700;29;20589;-75
2023/09/02 00:16:04;;;;;;;2.80;2.40;;;17.50;99.90;;;;;;4918899;29;20271;-74
2023/09/02 00:18:30;;;;;;;2.83;2.63;;;17.50;99.90;;;;;;4933609;29;20696;-74
2023/09/02 00:20:56;;;;;;;3.80;3.50;;;17.40;99.90;;;;;;4929109;29;20613;-74
2023/09/02 00:23:21;;;;;;;4.60;3.40;;;17.40;99.90;;;;;;4926977;29;20545;-74
2023/09/02 00:25:47;;;;;;;4.13;3.27;;;17.40;99.90;;;;;;4933056;29;20272;-74
2023/09/02 00:28:13;;;;;;;4.93;3.23;;;17.40;99.90;;;;;;4929140;29;20724;-74
2023/09/02 00:30:38;;;;;;;3.60;2.63;;;17.40;99.90;;;;;;4933535;29;20184;-74
2023/09/02 00:33:04;;;;;;;3.00;2.53;;;17.40;99.90;;;;;;4915897;29;20173;-75
2023/09/02 00:35:30;;;;;;;3.00;2.50;;;17.40;99.90;;;;;;4877787;29;20233;-74
2023/09/02 00:37:55;;;;;;;3.33;2.77;;;17.40;99.90;;;;;;4916007;29;20276;-74
2023/09/02 00:40:24;;;;;;;4.43;3.10;;;17.30;99.90;;;;;;4916004;29;20181;-74
2023/09/02 00:42:51;;;;;;;2.60;2.40;;;17.30;99.90;;;;;;4899410;29;20670;-74
2023/09/02 00:45:21;;;;;;;3.30;2.60;;;17.30;99.90;;;;;;4913091;29;20949;-74
2023/09/02 00:47:49;;;;;;;3.40;2.20;;;17.30;99.90;;;;;;4913966;29;20640;-74
2023/09/02 00:50:15;;;;;;;4.20;2.70;;;17.30;99.90;;;;;;4913051;29;20971;-75
2023/09/02 00:52:41;;;;;;;4.67;2.77;;;17.30;99.90;;;;;;4901458;29;20614;-74
2023/09/02 00:55:07;;;;;;;2.67;2.40;;;17.20;99.90;;;;;;4928440;29;20166;-74
2023/09/02 00:57:35;;;;;;;3.03;2.50;;;17.20;99.90;;;;;;4915543;29;20280;-75
2023/09/02 01:00:04;;;;;;;4.57;2.53;;;17.20;99.90;;;;;;4935323;29;20586;-74
2023/09/02 01:02:30;;;;;;;4.77;2.80;;;17.20;99.90;;;;;;4919579;29;20661;-76
2023/09/02 01:04:58;;;;;;;3.93;2.30;;;17.20;99.90;;;;;;4919964;29;20621;-75
2023/09/02 01:07:25;;;;;;;3.03;2.73;;;17.20;99.90;;;;;;4922212;29;21231;-75
2023/09/02 01:09:51;;;;;;;2.83;2.60;;;17.20;99.90;;;;;;4925894;29;20958;-74
2023/09/02 01:12:17;;;;;;;2.27;2.00;;;17.10;99.90;;;;;;4925877;29;20623;-75
2023/09/02 01:14:43;;;;;;;3.20;2.40;;;17.20;99.90;;;;;;4903296;29;20574;-75
2023/09/02 01:17:09;;;;;;;4.20;2.47;;;17.10;99.90;;;;;;4908497;29;20733;-74
2023/09/02 01:19:37;;;;;;;4.30;2.90;;;17.10;99.90;;;;;;4912278;29;20705;-74
2023/09/02 01:22:30;;;;;;;2.73;2.30;;;17.10;99.90;;;;;;4899633;29;20629;-75
2023/09/02 01:25:18;;;;;;;2.50;2.10;;;17.10;99.90;;;;;;4940540;29;20617;-74
2023/09/02 01:27:54;;;;;;;6.97;2.77;;;17.00;99.90;;;;;;4915729;29;21289;-74
2023/09/02 01:30:26;;;;;;;2.87;2.40;;;17.00;99.90;;;;;;4907312;29;21185;-75
2023/09/02 01:32:54;;;;;;;3.20;2.37;;;17.00;99.90;;;;;;4899864;29;20621;-74
2023/09/02 01:35:29;;;;;;;3.23;2.20;;;17.00;99.90;;;;;;4899963;29;20606;-74
2023/09/02 01:37:56;;;;;;;2.70;2.50;;;17.00;99.90;;;;;;4928775;29;21228;-74
2023/09/02 01:40:25;;;;;;;4.57;2.70;;;17.00;99.90;;;;;;4900010;29;20590;-74
2023/09/02 01:42:52;;;;;;;3.40;2.87;;;17.00;99.90;;;;;;4915252;29;20669;-74
2023/09/02 01:45:19;;;;;;;6.10;3.00;;;17.00;99.90;;;;;;4925115;29;20601;-74
2023/09/02 01:47:48;;;;;;;4.13;3.00;;;17.00;99.90;;;;;;4944165;29;20637;-74
2023/09/02 01:50:21;;;;;;;3.87;2.90;;;17.00;99.90;;;;;;4899482;29;20590;-74
2023/09/02 01:52:48;;;;;;;3.20;2.70;;;17.00;99.90;;;;;;4920540;29;20700;-75
2023/09/02 01:55:15;;;;;;;4.30;3.00;;;17.00;99.90;;;;;;4900481;29;20684;-74
2023/09/02 01:57:42;;;;;;;5.97;3.60;;;17.00;99.90;;;;;;4912301;29;20601;-74
2023/09/02 02:00:11;;;;;;;4.93;4.00;;;17.00;99.90;;;;;;4915374;29;20589;-74
2023/09/02 02:02:39;;;;;;;5.07;3.67;;;17.00;99.90;;;;;;4922615;29;21259;-75
2023/09/02 02:05:07;;;;;;;4.87;3.97;;;17.00;99.90;;;;;;4902753;29;20585;-74
2023/09/02 02:07:37;;;;;;;3.37;3.07;;;17.00;99.90;;;;;;4922105;29;20696;-74
2023/09/02 02:10:11;;;;;;;3.70;3.00;;;17.00;99.90;;;;;;4899228;29;20598;-74
2023/09/02 02:12:41;;;;;;;5.07;3.73;;;17.00;99.90;;;;;;4898817;29;20728;-74
2023/09/02 02:15:10;;;;;;;3.93;3.00;;;16.90;99.90;;;;;;4918031;29;20602;-75
2023/09/02 02:17:38;;;;;;;2.90;2.60;;;16.90;99.90;;;;;;4919914;29;20601;-75
2023/09/02 02:20:04;;;;;;;3.30;2.50;;;16.90;99.90;;;;;;4898847;29;20640;-74
2023/09/02 02:22:30;;;;;;;2.73;2.40;;;16.90;99.90;;;;;;4909134;29;20629;-74
2023/09/02 02:24:56;;;;;;;4.73;2.90;;;16.90;99.90;;;;;;4930338;29;20598;-74
2023/09/02 02:27:22;;;;;;;3.10;2.70;;;16.90;99.90;;;;;;4909818;29;20213;-74
2023/09/02 02:29:48;;;;;;;2.50;2.13;;;16.90;99.90;;;;;;4913077;29;21149;-75
2023/09/02 02:32:13;;;;;;;3.73;3.43;;;16.90;99.90;;;;;;4898924;29;20201;-74
2023/09/02 02:34:39;;;;;;;4.07;3.23;;;16.90;99.90;;;;;;4906420;29;20229;-74
2023/09/02 02:37:05;;;;;;;3.50;3.20;;;16.90;99.90;;;;;;4898424;29;20272;-74
2023/09/02 02:39:30;;;;;;;2.77;2.40;;;16.80;99.90;;;;;;4922285;29;20193;-74
2023/09/02 02:41:57;;;;;;;2.47;2.27;;;16.80;99.90;;;;;;4914276;29;20315;-76
2023/09/02 02:44:23;;;;;;;4.00;3.47;;;16.80;99.90;;;;;;4900312;29;20629;-75
2023/09/02 02:46:48;;;;;;;3.67;2.80;;;16.80;99.90;;;;;;4928095;29;20741;-75
2023/09/02 02:49:14;;;;;;;2.93;2.47;;;16.80;99.90;;;;;;4900080;29;20619;-75
2023/09/02 02:51:40;;;;;;;2.40;2.10;;;16.80;99.90;;;;;;4900740;29;20254;-75
2023/09/02 02:54:06;;;;;;;2.87;2.47;;;16.80;99.90;;;;;;4915264;29;20178;-75
2023/09/02 02:56:31;;;;;;;2.93;2.67;;;16.80;99.90;;;;;;4921955;29;20192;-75
2023/09/02 02:58:57;;;;;;;3.20;2.90;;;16.80;99.90;;;;;;4901349;29;20960;-75
2023/09/02 03:01:23;;;;;;;2.90;2.60;;;16.70;99.90;;;;;;4917469;29;20220;-75
2023/09/02 03:03:49;;;;;;;3.83;3.40;;;16.80;99.90;;;;;;4901490;29;20594;-75
2023/09/02 03:06:21;;;;;;;4.40;3.57;;;16.80;99.90;;;;;;4921421;29;20677;-74
2023/09/02 03:08:47;;;;;;;3.83;3.43;;;16.80;99.90;;;;;;4931427;29;20255;-75
2023/09/02 03:11:14;;;;;;;4.07;3.67;;;16.80;99.90;;;;;;4902505;29;20666;-75
2023/09/02 03:13:40;;;;;;;5.50;2.97;;;16.80;99.90;;;;;;4925593;29;20607;-75
2023/09/02 03:16:13;;;;;;;3.77;3.47;;;16.90;99.90;;;;;;4914274;29;20185;-74
2023/09/02 03:18:41;;;;;;;3.13;2.50;;;16.90;99.90;;;;;;4945784;29;20613;-74
2023/09/02 03:21:07;;;;;;;6.47;3.10;;;16.90;99.90;;;;;;4947593;28;20634;-75
2023/09/02 03:23:35;;;;;;;5.20;3.33;;;17.00;99.90;;;;;;4897684;29;20983;-75
2023/09/02 03:26:08;;;;;;;3.13;2.83;;;17.00;99.90;;;;;;4889512;29;20606;-74
2023/09/02 03:28:35;;;;;;;2.60;2.30;;;17.00;99.90;;;;;;4920998;29;20598;-74
2023/09/02 03:31:05;;;;;;;4.03;3.30;;;17.10;99.90;;;;;;4955994;23;20713;-80
2023/09/02 03:33:31;;;;;;;3.13;2.80;;;17.10;99.90;;;;;;4925408;29;20274;-80
2023/09/02 03:35:57;;;;;;;4.67;3.33;;;17.10;99.90;;;;;;4936483;29;20683;-80
2023/09/02 03:38:23;;;;;;;5.33;3.00;;;17.10;99.90;;;;;;4951766;29;20244;-80
2023/09/02 03:40:48;;;;;;;3.00;2.50;;;17.10;99.90;;;;;;4935580;29;20643;-80
2023/09/02 03:43:14;;;;;;;5.63;2.50;;;17.10;99.90;;;;;;4945090;29;20227;-80
2023/09/02 03:45:40;;;;;;;3.37;2.50;;;17.20;99.90;;;;;;4952721;29;20211;-80
2023/09/02 03:48:06;;;;;;;4.20;2.60;;;17.10;99.90;;;;;;4934771;29;20209;-79
2023/09/02 03:50:32;;;;;;;3.37;2.37;;;17.10;99.90;;;;;;4951443;29;20595;-80
2023/09/02 03:52:59;;;;;;;3.43;2.90;;;17.10;99.90;;;;;;4944460;29;20618;-80
2023/09/02 03:55:24;;;;;;;3.33;2.60;;;17.10;99.90;;;;;;4951150;29;20667;-80
2023/09/02 03:57:51;;;;;;;3.20;2.67;;;17.10;99.90;;;;;;4950995;29;20194;-81
2023/09/02 04:00:17;;;;;;;4.20;3.17;;;17.10;99.90;;;;;;4944021;29;20588;-80
2023/09/02 04:02:43;;;;;;;4.53;3.80;;;17.10;99.90;;;;;;4935014;29;20287;-80
2023/09/02 04:05:10;;;;;;;3.07;2.77;;;17.00;99.90;;;;;;4950993;29;20180;-80
2023/09/02 04:07:36;;;;;;;3.50;3.03;;;17.00;99.90;;;;;;4935328;29;20707;-80
2023/09/02 04:10:02;;;;;;;4.17;3.37;;;17.00;99.90;;;;;;4952465;29;20592;-80
2023/09/02 04:12:27;;;;;;;3.50;2.77;;;17.00;99.90;;;;;;4944795;29;20552;-80
2023/09/02 04:14:53;;;;;;;2.77;2.57;;;16.90;99.90;;;;;;4944248;29;20176;-80
2023/09/02 04:17:20;;;;;;;5.50;3.03;;;16.90;99.90;;;;;;4935001;29;20835;-80
2023/09/02 04:19:46;;;;;;;2.80;2.40;;;16.90;99.90;;;;;;4930940;29;20624;-80
2023/09/02 04:22:12;;;;;;;4.00;2.90;;;16.90;99.90;;;;;;4934524;29;20200;-80
2023/09/02 04:24:38;;;;;;;3.43;3.13;;;16.90;99.90;;;;;;4934859;29;20279;-80
2023/09/02 04:27:04;;;;;;;3.07;2.77;;;16.90;99.90;;;;;;4933848;29;21208;-80
2023/09/02 04:29:29;;;;;;;7.17;2.60;;;16.80;99.90;;;;;;4918159;29;20596;-80
2023/09/02 04:31:57;;;;;;;3.50;2.90;;;16.80;99.90;;;;;;4933998;29;20644;-80
2023/09/02 04:34:25;;;;;;;3.10;2.60;;;16.80;99.90;;;;;;4944305;29;20651;-80
2023/09/02 04:36:51;;;;;;;7.10;4.20;;;16.80;99.90;;;;;;4935284;29;20694;-79
2023/09/02 04:39:17;;;;;;;4.53;3.93;;;16.70;99.90;;;;;;4908443;29;20597;-79
2023/09/02 04:41:45;;;;;;;5.50;4.10;;;16.70;99.90;;;;;;4930842;29;21210;-80
2023/09/02 04:44:14;;;;;;;3.83;2.80;;;16.60;99.90;;;;;;4932426;29;20690;-79
2023/09/02 04:46:40;;;;;;;6.93;4.67;;;16.60;99.90;;;;;;4908844;29;20204;-79
2023/09/02 04:49:07;;;;;;;6.00;4.17;;;16.60;99.90;;;;;;4925508;29;20623;-79
2023/09/02 04:51:32;;;;;;;7.10;6.10;;;16.60;99.90;;;;;;4938549;29;21378;-79
2023/09/02 04:53:59;;;;;;;7.23;5.47;;;16.60;99.90;;;;;;4938106;29;20191;-80
2023/09/02 04:56:25;;;;;;;6.67;5.17;;;16.60;99.90;;;;;;4950112;29;20597;-80
2023/09/02 04:58:52;;;;;;;5.93;5.27;;;16.60;99.90;;;;;;4919349;29;20192;-80
2023/09/02 05:01:22;;;;;;;8.93;5.70;;;16.60;99.90;;;;;;4938583;29;20749;-79
2023/09/02 05:03:55;;;;;;;10.17;6.50;;;16.60;99.90;;;;;;4954236;29;20610;-79
2023/09/02 05:06:20;;;;;;;13.80;6.77;;;16.60;99.90;;;;;;4955284;29;20749;-79
2023/09/02 05:08:53;;;;;;;8.67;5.53;;;16.70;99.90;;;;;;4931494;29;20182;-80
2023/09/02 05:11:20;;;;;;;10.10;7.00;;;16.70;99.90;;;;;;4938771;29;20650;-79
2023/09/02 05:13:48;;;;;;;9.97;6.90;;;16.80;99.90;;;;;;4953818;29;21139;-79
2023/09/02 05:16:14;;;;;;;13.83;7.43;;;16.80;99.90;;;;;;4918901;29;21063;-79
2023/09/02 05:18:40;;;;;;;14.93;7.63;;;16.80;99.90;;;;;;4921094;29;20610;-79
2023/09/02 05:21:05;;;;;;;9.60;7.33;;;16.90;99.90;;;;;;4946920;29;20702;-79
2023/09/02 05:23:32;;;;;;;11.20;7.90;;;16.90;99.90;;;;;;4938526;29;20181;-79
2023/09/02 05:25:58;;;;;;;10.93;7.03;;;16.90;99.90;;;;;;4955800;29;20264;-79
2023/09/02 05:28:25;;;;;;;13.57;6.40;;;16.90;99.90;;;;;;4918948;29;20592;-80
2023/09/02 05:30:54;;;;;;;12.53;8.40;;;17.00;99.90;;;;;;4937904;29;20592;-80
2023/09/02 05:33:20;;;;;;;15.27;8.30;;;17.00;99.90;;;;;;4945984;29;20917;-80
2023/09/02 05:35:46;;;;;;;12.87;8.07;;;16.90;99.90;;;;;;4955036;29;20180;-80
2023/09/02 05:38:12;;;;;;;9.30;7.17;;;16.90;99.90;;;;;;4946003;29;20184;-81
2023/09/02 05:40:42;;;;;;;12.07;8.47;;;17.00;99.90;;;;;;4906364;29;20208;-80
2023/09/02 05:43:08;;;;;;;11.23;8.77;;;17.00;99.90;;;;;;4937322;29;20552;-82
2023/09/02 05:45:34;;;;;;;10.73;7.83;;;17.00;99.90;;;;;;4954943;29;20599;-81
2023/09/02 05:48:00;;;;;;;9.03;7.10;;;17.10;99.90;;;;;;4954263;29;21236;-81
2023/09/02 05:50:27;;;;;;;10.17;7.97;;;17.10;99.90;;;;;;4947900;29;20591;-81
2023/09/02 05:52:52;;;;;;;9.63;8.50;;;17.10;99.90;;;;;;4955717;29;20927;-81
2023/09/02 05:55:18;;;;;;;8.97;6.37;;;17.20;99.90;;;;;;4948935;29;20682;-81
2023/09/02 05:57:45;;;;;;;11.73;9.13;;;17.30;99.90;;;;;;4937600;29;20283;-81
2023/09/02 06:00:12;;;;;;;12.50;7.80;;;17.30;99.90;;;;;;4939865;29;20607;-81
2023/09/02 06:02:41;;;;;;;12.07;8.60;;;17.40;99.90;;;;;;4939053;29;20694;-80
2023/09/02 06:05:06;;;;;;;11.90;8.20;;;17.40;99.90;;;;;;4937306;29;20596;-80
2023/09/02 06:07:32;;;;;;;11.43;8.37;;;17.50;99.90;;;;;;4952886;29;20243;-79
2023/09/02 06:09:58;;;;;;;13.73;7.60;;;17.50;99.90;;;;;;4949297;29;20566;-81
2023/09/02 06:12:24;;;;;;;21.80;9.87;;;17.60;99.90;;;;;;4952048;29;20276;-81
2023/09/02 06:14:49;;;;;;;12.03;8.70;;;17.60;99.90;;;;;;4954707;28;20176;-80
2023/09/02 06:17:15;;;;;;;13.63;9.77;;;17.60;99.90;;;;;;4944620;29;20677;-82
2023/09/02 06:19:41;;;;;;;13.70;9.20;;;17.60;99.90;;;;;;4942943;29;20184;-81
2023/09/02 06:22:06;;;;;;;17.60;9.00;;;17.60;99.90;;;;;;4918969;29;20672;-81
2023/09/02 06:24:32;;;;;;;12.17;9.30;;;17.70;99.90;;;;;;4921653;29;20561;-81
2023/09/02 06:27:03;;;;;;;13.80;9.60;;;17.70;99.90;;;;;;4934998;29;20735;-80
2023/09/02 06:29:32;;;;;;;12.17;9.13;;;17.80;99.90;;;;;;4940505;29;20260;-79
2023/09/02 06:31:58;;;;;;;10.20;8.90;;;17.80;99.90;;;;;;4933224;29;20655;-80
2023/09/02 06:34:24;;;;;;;11.27;8.27;;;17.90;99.90;;;;;;4941186;29;20649;-80
2023/09/02 06:36:50;;;;;;;14.93;10.90;;;17.90;99.90;;;;;;4927875;29;20600;-80
2023/09/02 06:39:15;;;;;;;8.80;7.03;;;17.90;99.90;;;;;;4933359;28;20612;-79
2023/09/02 06:41:42;;;;;;;7.73;6.93;;;17.90;99.90;;;;;;4935605;29;20747;-79
2023/09/02 06:44:10;;;;;;;8.33;6.60;;;18.00;99.90;;;;;;4914215;29;20193;-81
2023/09/02 06:46:38;;;;;;;6.07;5.47;;;18.00;99.90;;;;;;4929855;29;20998;-80
2023/09/02 06:49:05;;;;;;;4.97;4.30;;;18.10;99.90;;;;;;4935038;29;20176;-80
2023/09/02 06:51:31;;;;;;;6.37;4.73;;;18.10;99.90;;;;;;4916236;29;20625;-81
2023/09/02 06:53:57;;;;;;;5.90;4.67;;;18.20;99.90;;;;;;4935941;29;20600;-80
2023/09/02 06:56:23;;;;;;;4.87;4.30;;;18.30;99.90;;;;;;4953501;29;20608;-80
2023/09/02 06:58:50;;;;;;;5.07;4.17;;;18.40;99.90;;;;;;4952271;29;20216;-81
2023/09/02 07:01:17;;;;;;;5.30;4.80;;;18.60;99.90;;;;;;4952880;29;20215;-80
2023/09/02 07:03:47;;;;;;;5.83;4.33;;;18.70;99.90;;;;;;4952538;29;20599;-80
2023/09/02 07:06:15;;;;;;;5.50;4.90;;;18.90;99.90;;;;;;4947484;29;20604;-79
2023/09/02 07:08:45;;;;;;;5.00;4.50;;;19.10;99.90;;;;;;4947801;29;20956;-84
2023/09/02 07:11:11;;;;;;;5.47;4.73;;;19.20;99.90;;;;;;4934686;29;20621;-81
2023/09/02 07:13:38;;;;;;;3.93;3.63;;;19.30;99.90;;;;;;4929162;29;20628;-80
2023/09/02 07:16:08;;;;;;;4.10;3.80;;;19.60;99.90;;;;;;4954161;29;20668;-80
2023/09/02 07:18:34;;;;;;;4.03;3.63;;;19.90;99.90;;;;;;4949553;28;20595;-80
2023/09/02 07:21:01;;;;;;;4.67;2.80;;;20.50;99.90;;;;;;4936802;29;20945;-80
2023/09/02 07:23:27;;;;;;;2.97;2.50;;;21.10;99.90;;;;;;4944988;29;20579;-81
2023/09/02 07:25:53;;;;;;;3.23;2.57;;;21.50;99.90;;;;;;4925240;29;20584;-81
2023/09/02 07:28:19;;;;;;;3.83;2.37;;;22.00;99.90;;;;;;4937741;29;20633;-81
2023/09/02 07:30:45;;;;;;;3.70;2.67;;;22.30;99.90;;;;;;4949703;29;20653;-81
2023/09/02 07:33:10;;;;;;;2.40;1.90;;;22.70;99.90;;;;;;4938870;29;20299;-81
2023/09/02 07:35:37;;;;;;;3.03;2.67;;;23.20;99.90;;;;;;4955970;29;20616;-81
2023/09/02 07:38:04;;;;;;;2.60;2.10;;;23.70;99.90;;;;;;4947594;29;20193;-81
2023/09/02 07:40:30;;;;;;;2.67;2.13;;;24.20;99.90;;;;;;4945542;29;20608;-80
2023/09/02 07:42:58;;;;;;;2.87;2.43;;;24.70;99.90;;;;;;4955624;29;20629;-79
2023/09/02 07:45:24;;;;;;;3.30;2.03;;;25.10;99.90;;;;;;4959401;29;20182;-78
2023/09/02 07:47:50;;;;;;;3.43;2.40;;;25.50;99.90;;;;;;4967595;29;20634;-79
2023/09/02 07:50:17;;;;;;;2.80;2.60;;;25.80;99.90;;;;;;4954113;29;20621;-80
2023/09/02 07:52:43;;;;;;;2.60;2.20;;;26.00;99.90;;;;;;4954115;29;20671;-80
2023/09/02 07:55:08;;;;;;;3.03;2.40;;;26.20;99.90;;;;;;4960454;29;20175;-79
2023/09/02 07:57:34;;;;;;;3.17;2.60;;;26.40;99.90;;;;;;4951106;29;20196;-78
2023/09/02 08:00:00;;;;;;;2.60;2.20;;;26.70;99.90;;;;;;4969359;29;20183;-78
2023/09/02 08:02:26;;;;;;;3.53;3.00;;;27.00;99.90;;;;;;4950500;29;20207;-79
2023/09/02 08:04:52;;;;;;;2.90;2.70;;;27.50;99.90;;;;;;4957171;29;20631;-78
2023/09/02 08:07:17;;;;;;;3.47;3.17;;;28.10;99.90;;;;;;4944193;29;20238;-80
2023/09/02 08:09:43;;;;;;;3.20;2.90;;;28.60;99.90;;;;;;4943776;29;20546;-80
2023/09/02 08:12:09;;;;;;;2.50;2.23;;;29.10;99.90;;;;;;4913250;29;20253;-80
2023/09/02 08:14:34;;;;;;;4.00;3.33;;;29.80;99.90;;;;;;4938956;29;20681;-81
2023/09/02 08:17:00;;;;;;;2.50;2.30;;;30.20;99.90;;;;;;4946449;29;20772;-80
2023/09/02 08:19:29;;;;;;;4.20;2.27;;;30.40;99.90;;;;;;4938101;29;20222;-81
2023/09/02 08:21:55;;;;;;;3.87;1.93;;;30.70;99.90;;;;;;4955998;29;20644;-79
2023/09/02 08:24:21;;;;;;;2.33;2.10;;;30.90;99.90;;;;;;4956942;29;20622;-79
2023/09/02 08:26:46;;;;;;;2.33;1.93;;;31.30;99.90;;;;;;4923984;29;20203;-80
2023/09/02 08:29:12;;;;;;;1.90;1.60;;;31.50;99.90;;;;;;4950696;29;20821;-80
2023/09/02 08:31:38;;;;;;;2.67;1.77;;;31.90;99.90;;;;;;4955621;29;20214;-80
2023/09/02 08:34:03;;;;;;;2.63;1.80;;;32.10;99.90;;;;;;4956877;29;20206;-80
2023/09/02 08:36:29;;;;;;;3.10;1.70;;;32.40;99.90;;;;;;4948461;29;20188;-81
2023/09/02 08:38:55;;;;;;;1.97;1.67;;;32.70;99.90;;;;;;4956313;28;20759;-80
2023/09/02 08:41:30;;;;;;;1.80;1.50;;;32.60;99.90;;;;;;4939247;29;20204;-80
2023/09/02 08:44:01;;;;;;;3.60;1.57;;;32.60;99.90;;;;;;4954932;29;20183;-81
2023/09/02 08:46:27;;;;;;;2.07;1.60;;;32.30;99.90;;;;;;4939771;29;20735;-82
2023/09/02 08:48:57;;;;;;;3.20;1.30;;;32.20;99.90;;;;;;4946788;29;20691;-80
2023/09/02 08:51:24;;;;;;;1.60;1.10;;;32.40;99.90;;;;;;4939129;29;20558;-81
2023/09/02 08:53:55;;;;;;;2.57;1.30;;;32.90;99.90;;;;;;4921794;29;20600;-80
2023/09/02 08:56:25;;;;;;;2.73;1.00;;;33.40;99.90;;;;;;4939627;29;20605;-80
2023/09/02 08:58:53;;;;;;;2.27;1.10;;;33.60;99.90;;;;;;4924174;29;20652;-80
2023/09/02 09:01:20;;;;;;;1.40;0.90;;;34.00;99.90;;;;;;4923980;29;20631;-80
2023/09/02 09:03:51;;;;;;;1.97;0.90;;;34.10;99.90;;;;;;4952674;29;20612;-80
2023/09/02 09:06:20;;;;;;;1.70;0.90;;;34.40;99.90;;;;;;4958975;29;20584;-81
2023/09/02 09:08:48;;;;;;;1.40;0.70;;;34.90;99.90;;;;;;4955022;29;20587;-80
2023/09/02 09:11:17;;;;;;;2.30;1.00;;;35.40;99.90;;;;;;4974791;29;20615;-80
2023/09/02 09:13:49;;;;;;;2.10;0.83;;;35.90;99.90;;;;;;4969298;29;20563;-81
2023/09/02 09:16:23;;;;;;;2.00;0.73;;;35.90;99.90;;;;;;4967548;29;20675;-80
2023/09/02 09:18:50;;;;;;;1.50;0.90;;;35.80;99.90;;;;;;4961769;29;20612;-80
2023/09/02 09:21:16;;;;;;;1.73;0.80;;;36.00;99.90;;;;;;4965622;29;20604;-79
2023/09/02 09:23:42;;;;;;;1.47;0.87;;;36.20;99.90;;;;;;4942756;29;20588;-80
2023/09/02 09:26:10;;;;;;;1.70;0.70;;;36.40;99.90;;;;;;4948939;29;20588;-80
2023/09/02 09:28:56;;;;;;;1.53;0.80;;;36.60;99.90;;;;;;4945113;29;20700;-80
2023/09/02 09:31:23;;;;;;;1.50;0.70;;;37.00;99.90;;;;;;4938191;28;21143;-80
2023/09/02 09:33:54;;;;;;;1.33;0.70;;;37.30;99.40;;;;;;4947773;29;20593;-80
2023/09/02 09:36:23;;;;;;;2.03;0.70;;;37.60;99.30;;;;;;4953176;29;20588;-79
2023/09/02 09:38:53;;;;;;;1.40;0.63;;;37.90;97.40;;;;;;4947045;29;21148;-80
2023/09/02 09:41:19;;;;;;;1.70;0.70;;;37.80;94.90;;;;;;4937705;29;20646;-79
2023/09/02 09:44:01;;;;;;;1.40;0.70;;;37.80;95.50;;;;;;4955677;29;20628;-79
2023/09/02 09:46:27;;;;;;;2.10;0.60;;;37.90;93.80;;;;;;4954049;29;20570;-80
2023/09/02 09:49:00;;;;;;;1.60;0.77;;;37.90;94.00;;;;;;4931595;29;20589;-80
2023/09/02 09:51:27;;;;;;;1.53;0.70;;;38.10;92.70;;;;;;4949759;29;20208;-81
2023/09/02 09:53:59;;;;;;;1.37;0.70;;;38.00;92.60;;;;;;4952249;29;20792;-81
2023/09/02 09:56:28;;;;;;;1.30;0.63;;;38.20;92.30;;;;;;4938021;29;20589;-79
2023/09/02 09:58:55;;;;;;;1.67;0.70;;;38.50;91.70;;;;;;4940697;29;21019;-80
2023/09/02 10:01:22;;;;;;;1.90;0.67;;;38.50;91.20;;;;;;4950480;29;20942;-81
2023/09/02 10:03:48;;;;;;;1.30;0.60;;;38.60;88.90;;;;;;4950617;29;20596;-80
2023/09/02 10:06:14;;;;;;;1.43;0.73;;;38.30;86.50;;;;;;4952347;29;20604;-80
2023/09/02 10:08:53;;;;;;;1.40;0.67;;;38.10;84.90;;;;;;4923650;29;20632;-80
2023/09/02 10:11:21;;;;;;;2.80;0.70;;;38.00;83.20;;;;;;4957623;29;20200;-81
2023/09/02 10:13:49;;;;;;;1.80;0.70;;;38.00;86.20;;;;;;4943245;29;20591;-81
2023/09/02 10:16:16;;;;;;;1.47;0.60;;;38.20;81.90;;;;;;4957440;29;20587;-82
2023/09/02 10:18:43;;;;;;;1.90;0.70;;;38.00;82.70;;;;;;4959391;29;20669;-81
2023/09/02 10:21:11;;;;;;;2.20;0.60;;;37.70;80.10;;;;;;4949589;29;20590;-80
2023/09/02 10:23:42;;;;;;;2.83;0.90;;;37.70;81.00;;;;;;4954337;29;20644;-80
2023/09/02 10:26:38;;;;;;;1.40;0.70;;;37.60;76.90;;;;;;4954069;29;20591;-80
2023/09/02 10:29:08;;;;;;;1.60;0.70;;;37.60;76.80;;;;;;4919747;29;21075;-81
2023/09/02 10:31:45;;;;;;;1.70;0.60;;;37.70;78.40;;;;;;4965624;29;21458;-81
2023/09/02 10:34:18;;;;;;;1.70;0.90;;;37.70;78.40;;;;;;4949448;29;20588;-81
2023/09/02 10:36:56;;;;;;;1.50;0.60;;;37.70;78.60;;;;;;4954322;29;20584;-81
2023/09/02 10:39:50;;;;;;;1.33;0.60;;;37.50;67.50;;;;;;4951657;29;20945;-80
2023/09/02 10:42:18;;;;;;;1.57;0.60;;;37.30;76.10;;;;;;4955693;28;20615;-81
2023/09/02 10:44:45;;;;;;;1.40;0.63;;;37.40;79.10;;;;;;4937997;29;20595;-79
2023/09/02 10:47:11;;;;;;;2.20;0.80;;;37.50;79.90;;;;;;4922581;29;20645;-81
2023/09/02 10:49:37;;;;;;;1.20;0.53;;;37.60;79.90;;;;;;4953912;29;20597;-78
2023/09/02 10:52:03;;;;;;;1.40;0.63;;;37.70;79.20;;;;;;4954383;29;20608;-81
2023/09/02 10:55:00;;;;;;;1.40;0.60;;;37.80;76.90;;;;;;4948901;29;20614;-80
2023/09/02 10:57:26;;;;;;;1.30;0.60;;;37.90;77.40;;;;;;4958130;29;20596;-81
2023/09/02 11:00:11;;;;;;;1.70;0.80;;;38.10;78.20;;;;;;4954517;29;20588;-81
2023/09/02 11:02:41;;;;;;;1.60;0.60;;;38.10;77.10;;;;;;4936503;29;20208;-81
2023/09/02 11:05:07;;;;;;;1.50;0.67;;;38.20;75.60;;;;;;4956083;29;20579;-82
2023/09/02 11:07:34;;;;;;;2.13;0.60;;;38.40;75.70;;;;;;4946610;29;20636;-82
2023/09/02 11:10:01;;;;;;;1.60;0.60;;;38.40;72.60;;;;;;4955457;29;20583;-81
2023/09/02 11:12:27;;;;;;;1.60;0.50;;;38.20;73.10;;;;;;4931365;29;20625;-80
2023/09/02 11:15:08;;;;;;;1.40;0.50;;;38.10;72.20;;;;;;4938823;29;20588;-80
2023/09/02 11:17:35;;;;;;;1.40;0.70;;;37.90;69.60;;;;;;4955536;29;20592;-80
2023/09/02 11:20:07;;;;;;;1.60;0.70;;;37.40;69.30;;;;;;4942769;29;20663;-80
2023/09/02 11:22:49;;;;;;;2.67;0.70;;;37.00;68.80;;;;;;4957377;29;20708;-80
2023/09/02 11:25:33;;;;;;;1.50;0.60;;;36.40;68.70;;;;;;4929914;29;20969;-80
2023/09/02 11:28:00;;;;;;;1.80;0.80;;;35.90;69.30;;;;;;4931490;28;20627;-80
2023/09/02 11:30:29;;;;;;;1.80;1.00;;;35.50;70.00;;;;;;4935774;29;20696;-82
2023/09/02 11:32:56;;;;;;;1.57;0.90;;;35.10;70.50;;;;;;4937279;29;20638;-81
2023/09/02 11:35:33;;;;;;;3.20;1.40;;;34.80;71.70;;;;;;4957473;29;20670;-79
2023/09/02 11:38:01;;;;;;;1.80;0.87;;;34.50;73.10;;;;;;4951764;29;20601;-82
2023/09/02 11:40:27;;;;;;;2.07;0.80;;;34.50;75.30;;;;;;4953873;29;20592;-81
2023/09/02 11:42:59;;;;;;;1.60;0.97;;;34.70;77.20;;;;;;4956483;29;20678;-82
2023/09/02 11:45:33;;;;;;;1.50;0.70;;;34.90;77.50;;;;;;4957111;29;20620;-81
2023/09/02 11:47:59;;;;;;;1.40;0.70;;;35.00;77.20;;;;;;4943357;29;20727;-82
2023/09/02 11:50:25;;;;;;;1.67;0.70;;;35.10;76.50;;;;;;4957265;29;20608;-81
2023/09/02 11:52:56;;;;;;;1.37;0.60;;;35.20;77.20;;;;;;4947587;29;20617;-81
2023/09/02 11:55:22;;;;;;;1.60;0.70;;;35.30;76.60;;;;;;4950423;28;20621;-82
2023/09/02 11:57:49;;;;;;;4.40;0.93;;;35.30;74.40;;;;;;4951051;29;20695;-81
2023/09/02 12:00:20;;;;;;;1.87;0.70;;;35.10;73.40;;;;;;4958807;29;20645;-82
2023/09/02 12:02:47;;;;;;;2.27;0.70;;;34.80;71.90;;;;;;4934635;29;20621;-82
2023/09/02 12:05:13;;;;;;;2.30;0.80;;;34.50;72.10;;;;;;4955139;29;20588;-83
2023/09/02 12:07:42;;;;;;;1.50;0.60;;;34.10;72.30;;;;;;4952780;29;20637;-81
2023/09/02 12:10:09;;;;;;;1.63;1.10;;;33.70;71.70;;;;;;4943003;29;20647;-83
2023/09/02 12:12:40;;;;;;;2.07;1.00;;;33.40;72.70;;;;;;4948750;29;20600;-83
2023/09/02 12:15:06;;;;;;;2.67;1.00;;;33.00;73.70;;;;;;4928004;29;20625;-81
2023/09/02 12:17:32;;;;;;;1.73;0.83;;;32.80;74.80;;;;;;4954071;29;20637;-81
2023/09/02 12:19:58;;;;;;;1.87;0.70;;;32.70;75.60;;;;;;4949454;29;20590;-81
2023/09/02 12:22:24;;;;;;;2.07;0.60;;;32.40;76.30;;;;;;4952379;29;20618;-82
2023/09/02 12:24:50;;;;;;;1.70;1.10;;;32.40;76.50;;;;;;4927862;29;20600;-81
2023/09/02 12:27:17;;;;;;;1.50;0.60;;;32.40;76.70;;;;;;4945397;29;20730;-83
2023/09/02 12:29:57;;;;;;;1.57;0.63;;;32.40;77.50;;;;;;4954183;29;20247;-82
2023/09/02 12:32:23;;;;;;;1.70;0.60;;;32.50;76.90;;;;;;4926447;29;20670;-82
2023/09/02 12:34:49;;;;;;;2.17;0.60;;;32.70;79.70;;;;;;4935106;29;20608;-82
2023/09/02 12:37:16;;;;;;;2.37;0.90;;;32.80;79.60;;;;;;4953025;29;20590;-82
2023/09/02 12:39:42;;;;;;;1.93;0.80;;;32.90;79.00;;;;;;4953746;29;20651;-82
2023/09/02 12:42:25;;;;;;;1.50;0.80;;;33.00;78.50;;;;;;4938380;29;20712;-80
2023/09/02 12:44:58;;;;;;;1.60;0.87;;;33.10;77.70;;;;;;4933043;29;20188;-79
2023/09/02 12:47:26;;;;;;;1.50;0.67;;;33.20;76.50;;;;;;4934040;29;20652;-79
2023/09/02 12:49:57;;;;;;;3.50;0.60;;;33.10;75.80;;;;;;4933940;29;20599;-79